-> Other stations

1455

Speed(max): 1.6(2.2)knots
Direction:191° ( S)
Temperature: 21.1°C
Arrived: 2026-09-01 00:25:11 CEST

Past data:
hh:mmknots
Dir (°)
°C
00:23 1.6 2.7 SSW(192) 21.2
00:21 2.2 2.7 S(189) 21.2
00:19 2.7 3.8 SSW(192) 21.2
00:17 2.7 3.8 S(190) 21.3
00:15 2.2 2.7 SSW(192) 21.2
00:13 1.1 2.2 S(190) 21.2
00:11 1.1 2.2 SSW(193) 21.2
00:09 0.5 1.6 S(189) 21.2
00:07 0 1.1 S(189) 21.2
00:05 0.5 1.6 S(191) 21.1
00:03 1.1 1.6 S(190) 21.1
00:01 0.5 1.6 SSW(192) 21.0
23:59 0 1.6 SSW(193) 21.0
23:57 1.1 2.2 S(191) 21.0
15 min. averages:
hh:mmknots
Dir (°)
°C
00:15 0.5 2.2 S(191) 21.1
00:00 0.5 3.8 S(191) 21.1
23:45 0 0 S(189) 21.2
23:30 0 0 S(191) 20.8
23:15 0 0 S(191) 21.0
23:00 0 0 S(191) 21.1
22:45 0 1.1 S(190) 21.2
22:30 0.5 2.2 S(190) 21.2
22:15 0 1.1 S(190) 21.6
22:00 0.5 2.2 S(190) 22.0
21:45 0 1.1 S(190) 22.6
21:30 1.1 2.7 S(183) 23.8
21:15 1.1 2.7 S(181) 23.8
21:00 0.5 2.7 WSW(241) 23.3
20:45 0 1.6 WSW(249) 23.3
Stations at HR:
1455
-> Other regions

Desktop view
Data provided by Holfuy.
© Holfuy Weather 2026